<?xml version="1.0" encoding="utf-8"?>
<gpx xmlns:xsi="http://www.w3.org/2001/XMLSchema-instance" xmlns:xsd="http://www.w3.org/2001/XMLSchema" version="1.1" creator="Shapelink.com" xmlns="http://www.topografix.com/GPX/1/1" xmlns:gpxtpx="http://www.garmin.com/xmlschemas/TrackPointExtension/v1">
  <metadata>
    <name>Löpning 5.09 km, 2019-08-08</name>
    <desc></desc>
    <author><name>Marian Moron</name></author> 
    <time>2019-08-08T18:59:49Z</time>
  </metadata>
  <trk>
    <name>Löpning 5.09 km, 2019-08-08</name>
    <trkseg>
      <trkpt lat="51.21564529092" lon="4.481875355444">
        <ele>5.2</ele>
        <time>2019-08-08T18:59:49Z</time>
      </trkpt>
      <trkpt lat="51.215842097932" lon="4.481917767858">
        <ele>6.6</ele>
        <time>2019-08-08T18:59:57Z</time>
      </trkpt>
      <trkpt lat="51.216025074809" lon="4.481950541087">
        <ele>8.4</ele>
        <time>2019-08-08T19:00:04Z</time>
      </trkpt>
      <trkpt lat="51.216206123849" lon="4.481957162788">
        <ele>10.8</ele>
        <time>2019-08-08T19:00:11Z</time>
      </trkpt>
      <trkpt lat="51.21639547097" lon="4.481939644617">
        <ele>10.4</ele>
        <time>2019-08-08T19:00:19Z</time>
      </trkpt>
      <trkpt lat="51.216584482815" lon="4.481915504745">
        <ele>10.6</ele>
        <time>2019-08-08T19:00:26Z</time>
      </trkpt>
      <trkpt lat="51.216775087221" lon="4.481859262196">
        <ele>11.6</ele>
        <time>2019-08-08T19:00:33Z</time>
      </trkpt>
      <trkpt lat="51.216962171229" lon="4.481793380462">
        <ele>13.8</ele>
        <time>2019-08-08T19:00:40Z</time>
      </trkpt>
      <trkpt lat="51.216987568386" lon="4.481733617515">
        <ele>13.8</ele>
        <time>2019-08-08T19:00:42Z</time>
      </trkpt>
      <trkpt lat="51.217035345216" lon="4.481452740046">
        <ele>14.8</ele>
        <time>2019-08-08T19:00:48Z</time>
      </trkpt>
      <trkpt lat="51.217054539767" lon="4.481130875086">
        <ele>15.2</ele>
        <time>2019-08-08T19:00:55Z</time>
      </trkpt>
      <trkpt lat="51.217092677412" lon="4.480817140569">
        <ele>15.6</ele>
        <time>2019-08-08T19:01:02Z</time>
      </trkpt>
      <trkpt lat="51.217098628561" lon="4.480506339717">
        <ele>16.4</ele>
        <time>2019-08-08T19:01:09Z</time>
      </trkpt>
      <trkpt lat="51.217107597194" lon="4.480198723987">
        <ele>17.2</ele>
        <time>2019-08-08T19:01:16Z</time>
      </trkpt>
      <trkpt lat="51.217135676559" lon="4.479913152654">
        <ele>17.6</ele>
        <time>2019-08-08T19:01:23Z</time>
      </trkpt>
      <trkpt lat="51.217146992124" lon="4.479616265756">
        <ele>17.8</ele>
        <time>2019-08-08T19:01:30Z</time>
      </trkpt>
      <trkpt lat="51.217163169191" lon="4.479291383312">
        <ele>17.4</ele>
        <time>2019-08-08T19:01:37Z</time>
      </trkpt>
      <trkpt lat="51.217158475327" lon="4.479000196106">
        <ele>12</ele>
        <time>2019-08-08T19:01:44Z</time>
      </trkpt>
      <trkpt lat="51.217172054005" lon="4.478693586204">
        <ele>8.2</ele>
        <time>2019-08-08T19:01:51Z</time>
      </trkpt>
      <trkpt lat="51.217180100629" lon="4.478379097316">
        <ele>6</ele>
        <time>2019-08-08T19:01:58Z</time>
      </trkpt>
      <trkpt lat="51.217187309063" lon="4.478068547921">
        <ele>4.2</ele>
        <time>2019-08-08T19:02:07Z</time>
      </trkpt>
      <trkpt lat="51.21719258966" lon="4.47776939791">
        <ele>3</ele>
        <time>2019-08-08T19:02:15Z</time>
      </trkpt>
      <trkpt lat="51.217199714275" lon="4.477466895139">
        <ele>1.6</ele>
        <time>2019-08-08T19:02:23Z</time>
      </trkpt>
      <trkpt lat="51.217197534981" lon="4.477160285237">
        <ele>0.4</ele>
        <time>2019-08-08T19:02:31Z</time>
      </trkpt>
      <trkpt lat="51.21724120468" lon="4.476857866285">
        <ele>0</ele>
        <time>2019-08-08T19:02:39Z</time>
      </trkpt>
      <trkpt lat="51.217255118634" lon="4.476569193649">
        <ele>0</ele>
        <time>2019-08-08T19:02:46Z</time>
      </trkpt>
      <trkpt lat="51.217259980136" lon="4.476266942335">
        <ele>0</ele>
        <time>2019-08-08T19:02:53Z</time>
      </trkpt>
      <trkpt lat="51.217279593782" lon="4.475969301066">
        <ele>0</ele>
        <time>2019-08-08T19:03:00Z</time>
      </trkpt>
      <trkpt lat="51.217296022306" lon="4.475675264014">
        <ele>0</ele>
        <time>2019-08-08T19:03:07Z</time>
      </trkpt>
      <trkpt lat="51.217312031735" lon="4.475373180338">
        <ele>0</ele>
        <time>2019-08-08T19:03:14Z</time>
      </trkpt>
      <trkpt lat="51.217331561562" lon="4.475080149114">
        <ele>0</ele>
        <time>2019-08-08T19:03:21Z</time>
      </trkpt>
      <trkpt lat="51.21732753825" lon="4.474781837293">
        <ele>0</ele>
        <time>2019-08-08T19:03:28Z</time>
      </trkpt>
      <trkpt lat="51.217352432493" lon="4.474470449708">
        <ele>0</ele>
        <time>2019-08-08T19:03:35Z</time>
      </trkpt>
      <trkpt lat="51.217363999515" lon="4.474155625544">
        <ele>0</ele>
        <time>2019-08-08T19:03:42Z</time>
      </trkpt>
      <trkpt lat="51.217365675895" lon="4.473825797779">
        <ele>0</ele>
        <time>2019-08-08T19:03:49Z</time>
      </trkpt>
      <trkpt lat="51.217369363931" lon="4.473534359116">
        <ele>0</ele>
        <time>2019-08-08T19:03:55Z</time>
      </trkpt>
      <trkpt lat="51.217379841306" lon="4.473209476672">
        <ele>0</ele>
        <time>2019-08-08T19:04:02Z</time>
      </trkpt>
      <trkpt lat="51.217391995061" lon="4.472922228959">
        <ele>0</ele>
        <time>2019-08-08T19:04:08Z</time>
      </trkpt>
      <trkpt lat="51.217389061396" lon="4.47260195656">
        <ele>0</ele>
        <time>2019-08-08T19:04:16Z</time>
      </trkpt>
      <trkpt lat="51.217375566537" lon="4.472303728558">
        <ele>0</ele>
        <time>2019-08-08T19:04:23Z</time>
      </trkpt>
      <trkpt lat="51.217394677269" lon="4.472008685678">
        <ele>0</ele>
        <time>2019-08-08T19:04:30Z</time>
      </trkpt>
      <trkpt lat="51.217408758861" lon="4.471694615885">
        <ele>0</ele>
        <time>2019-08-08T19:04:37Z</time>
      </trkpt>
      <trkpt lat="51.217428204869" lon="4.471384485585">
        <ele>0</ele>
        <time>2019-08-08T19:04:44Z</time>
      </trkpt>
      <trkpt lat="51.217451087456" lon="4.471091202904">
        <ele>0</ele>
        <time>2019-08-08T19:04:51Z</time>
      </trkpt>
      <trkpt lat="51.217484531237" lon="4.470769924677">
        <ele>0</ele>
        <time>2019-08-08T19:04:58Z</time>
      </trkpt>
      <trkpt lat="51.217477238984" lon="4.470437498523">
        <ele>0</ele>
        <time>2019-08-08T19:05:05Z</time>
      </trkpt>
      <trkpt lat="51.217466091057" lon="4.470109598595">
        <ele>2.2</ele>
        <time>2019-08-08T19:05:12Z</time>
      </trkpt>
      <trkpt lat="51.217460307546" lon="4.469705758653">
        <ele>6.8</ele>
        <time>2019-08-08T19:05:21Z</time>
      </trkpt>
      <trkpt lat="51.217455362225" lon="4.469373500137">
        <ele>9.8</ele>
        <time>2019-08-08T19:05:28Z</time>
      </trkpt>
      <trkpt lat="51.217426612308" lon="4.469041995992">
        <ele>10.4</ele>
        <time>2019-08-08T19:05:35Z</time>
      </trkpt>
      <trkpt lat="51.217451003637" lon="4.46874125342">
        <ele>10</ele>
        <time>2019-08-08T19:05:41Z</time>
      </trkpt>
      <trkpt lat="51.217481597572" lon="4.468444031246">
        <ele>6.8</ele>
        <time>2019-08-08T19:05:47Z</time>
      </trkpt>
      <trkpt lat="51.217495930621" lon="4.468121579553">
        <ele>5.2</ele>
        <time>2019-08-08T19:05:54Z</time>
      </trkpt>
      <trkpt lat="51.217522249787" lon="4.467821507533">
        <ele>2</ele>
        <time>2019-08-08T19:06:02Z</time>
      </trkpt>
      <trkpt lat="51.217503977245" lon="4.467515568183">
        <ele>0</ele>
        <time>2019-08-08T19:06:09Z</time>
      </trkpt>
      <trkpt lat="51.217511353317" lon="4.467224464796">
        <ele>0</ele>
        <time>2019-08-08T19:06:16Z</time>
      </trkpt>
      <trkpt lat="51.217329969001" lon="4.467150536438">
        <ele>0</ele>
        <time>2019-08-08T19:06:26Z</time>
      </trkpt>
      <trkpt lat="51.217247994019" lon="4.467071830397">
        <ele>0</ele>
        <time>2019-08-08T19:06:30Z</time>
      </trkpt>
      <trkpt lat="51.217199211361" lon="4.466782151933">
        <ele>0</ele>
        <time>2019-08-08T19:06:37Z</time>
      </trkpt>
      <trkpt lat="51.217156044576" lon="4.466484259207">
        <ele>1.4</ele>
        <time>2019-08-08T19:06:44Z</time>
      </trkpt>
      <trkpt lat="51.217116398189" lon="4.466201370082">
        <ele>1.8</ele>
        <time>2019-08-08T19:06:51Z</time>
      </trkpt>
      <trkpt lat="51.21706853754" lon="4.465904567003">
        <ele>3.4</ele>
        <time>2019-08-08T19:06:58Z</time>
      </trkpt>
      <trkpt lat="51.216982287789" lon="4.465623773353">
        <ele>4.6</ele>
        <time>2019-08-08T19:07:04Z</time>
      </trkpt>
      <trkpt lat="51.216903246472" lon="4.46535077487">
        <ele>1.6</ele>
        <time>2019-08-08T19:07:11Z</time>
      </trkpt>
      <trkpt lat="51.216785899872" lon="4.465120188801">
        <ele>0</ele>
        <time>2019-08-08T19:07:18Z</time>
      </trkpt>
      <trkpt lat="51.216662769761" lon="4.464879460633">
        <ele>0</ele>
        <time>2019-08-08T19:07:25Z</time>
      </trkpt>
      <trkpt lat="51.21650443567" lon="4.464719869257">
        <ele>0</ele>
        <time>2019-08-08T19:07:32Z</time>
      </trkpt>
      <trkpt lat="51.216316178196" lon="4.464595230404">
        <ele>0</ele>
        <time>2019-08-08T19:07:40Z</time>
      </trkpt>
      <trkpt lat="51.216145522712" lon="4.464454163027">
        <ele>0</ele>
        <time>2019-08-08T19:07:47Z</time>
      </trkpt>
      <trkpt lat="51.215965647138" lon="4.464409990414">
        <ele>0</ele>
        <time>2019-08-08T19:07:54Z</time>
      </trkpt>
      <trkpt lat="51.215823573933" lon="4.464238412921">
        <ele>0</ele>
        <time>2019-08-08T19:08:00Z</time>
      </trkpt>
      <trkpt lat="51.215640345599" lon="4.464158365776">
        <ele>1.4</ele>
        <time>2019-08-08T19:08:08Z</time>
      </trkpt>
      <trkpt lat="51.215482011508" lon="4.464292476176">
        <ele>6</ele>
        <time>2019-08-08T19:08:15Z</time>
      </trkpt>
      <trkpt lat="51.215323342141" lon="4.46445474976">
        <ele>10.6</ele>
        <time>2019-08-08T19:08:23Z</time>
      </trkpt>
      <trkpt lat="51.215174060502" lon="4.464615933697">
        <ele>14.2</ele>
        <time>2019-08-08T19:08:30Z</time>
      </trkpt>
      <trkpt lat="51.21503005946" lon="4.464808214483">
        <ele>20.4</ele>
        <time>2019-08-08T19:08:38Z</time>
      </trkpt>
      <trkpt lat="51.214838449226" lon="4.46489899046">
        <ele>21.8</ele>
        <time>2019-08-08T19:08:47Z</time>
      </trkpt>
      <trkpt lat="51.214652119589" lon="4.464944168901">
        <ele>16.4</ele>
        <time>2019-08-08T19:08:54Z</time>
      </trkpt>
      <trkpt lat="51.214447685048" lon="4.465019438363">
        <ele>11.8</ele>
        <time>2019-08-08T19:09:01Z</time>
      </trkpt>
      <trkpt lat="51.21425641009" lon="4.465117003679">
        <ele>5.6</ele>
        <time>2019-08-08T19:09:08Z</time>
      </trkpt>
      <trkpt lat="51.214063710209" lon="4.465180873757">
        <ele>2.4</ele>
        <time>2019-08-08T19:09:16Z</time>
      </trkpt>
      <trkpt lat="51.213866065007" lon="4.465236445754">
        <ele>0</ele>
        <time>2019-08-08T19:09:24Z</time>
      </trkpt>
      <trkpt lat="51.213702115043" lon="4.465367873946">
        <ele>0</ele>
        <time>2019-08-08T19:09:31Z</time>
      </trkpt>
      <trkpt lat="51.213560880028" lon="4.465544564398">
        <ele>0</ele>
        <time>2019-08-08T19:09:38Z</time>
      </trkpt>
      <trkpt lat="51.213466918929" lon="4.465790154068">
        <ele>0</ele>
        <time>2019-08-08T19:09:45Z</time>
      </trkpt>
      <trkpt lat="51.213409" lon="4.466063655465">
        <ele>0</ele>
        <time>2019-08-08T19:09:52Z</time>
      </trkpt>
      <trkpt lat="51.213360133523" lon="4.466358949802">
        <ele>0</ele>
        <time>2019-08-08T19:10:00Z</time>
      </trkpt>
      <trkpt lat="51.213354601469" lon="4.466645610782">
        <ele>8.2</ele>
        <time>2019-08-08T19:10:08Z</time>
      </trkpt>
      <trkpt lat="51.213405144326" lon="4.466941575671">
        <ele>19</ele>
        <time>2019-08-08T19:10:16Z</time>
      </trkpt>
      <trkpt lat="51.213396175693" lon="4.46723167323">
        <ele>29.2</ele>
        <time>2019-08-08T19:10:24Z</time>
      </trkpt>
      <trkpt lat="51.213320570955" lon="4.467261512794">
        <ele>35.4</ele>
        <time>2019-08-08T19:10:29Z</time>
      </trkpt>
      <trkpt lat="51.213195932102" lon="4.467484387515">
        <ele>30.6</ele>
        <time>2019-08-08T19:10:37Z</time>
      </trkpt>
      <trkpt lat="51.213032317414" lon="4.46768345764">
        <ele>8.6</ele>
        <time>2019-08-08T19:10:43Z</time>
      </trkpt>
      <trkpt lat="51.212891082399" lon="4.46788881419">
        <ele>1.2</ele>
        <time>2019-08-08T19:10:49Z</time>
      </trkpt>
      <trkpt lat="51.212899715756" lon="4.468464063987">
        <ele>0</ele>
        <time>2019-08-08T19:11:04Z</time>
      </trkpt>
      <trkpt lat="51.213051847241" lon="4.468659613714">
        <ele>0</ele>
        <time>2019-08-08T19:11:12Z</time>
      </trkpt>
      <trkpt lat="51.21320448164" lon="4.468830436836">
        <ele>0</ele>
        <time>2019-08-08T19:11:19Z</time>
      </trkpt>
      <trkpt lat="51.213274470505" lon="4.469095053419">
        <ele>0</ele>
        <time>2019-08-08T19:11:25Z</time>
      </trkpt>
      <trkpt lat="51.213283858233" lon="4.469419265311">
        <ele>2.2</ele>
        <time>2019-08-08T19:11:32Z</time>
      </trkpt>
      <trkpt lat="51.213290479934" lon="4.469716655123">
        <ele>4.8</ele>
        <time>2019-08-08T19:11:39Z</time>
      </trkpt>
      <trkpt lat="51.213359295333" lon="4.469996694402">
        <ele>4</ele>
        <time>2019-08-08T19:11:46Z</time>
      </trkpt>
      <trkpt lat="51.213415202606" lon="4.47028939035">
        <ele>4</ele>
        <time>2019-08-08T19:11:53Z</time>
      </trkpt>
      <trkpt lat="51.213473959725" lon="4.470567250335">
        <ele>6.8</ele>
        <time>2019-08-08T19:12:00Z</time>
      </trkpt>
      <trkpt lat="51.213531543378" lon="4.470879308472">
        <ele>12.8</ele>
        <time>2019-08-08T19:12:08Z</time>
      </trkpt>
      <trkpt lat="51.213526681876" lon="4.471185499279">
        <ele>20</ele>
        <time>2019-08-08T19:12:15Z</time>
      </trkpt>
      <trkpt lat="51.213458117934" lon="4.471469058956">
        <ele>23</ele>
        <time>2019-08-08T19:12:23Z</time>
      </trkpt>
      <trkpt lat="51.21341151457" lon="4.471771058813">
        <ele>22.8</ele>
        <time>2019-08-08T19:12:32Z</time>
      </trkpt>
      <trkpt lat="51.213481587254" lon="4.47204623659">
        <ele>21.6</ele>
        <time>2019-08-08T19:12:40Z</time>
      </trkpt>
      <trkpt lat="51.213548893911" lon="4.472312194277">
        <ele>23.4</ele>
        <time>2019-08-08T19:12:48Z</time>
      </trkpt>
      <trkpt lat="51.21361184198" lon="4.472612433935">
        <ele>21.2</ele>
        <time>2019-08-08T19:12:57Z</time>
      </trkpt>
      <trkpt lat="51.213634892205" lon="4.472930024126">
        <ele>25.6</ele>
        <time>2019-08-08T19:13:05Z</time>
      </trkpt>
      <trkpt lat="51.213671185832" lon="4.473242166082">
        <ele>26.2</ele>
        <time>2019-08-08T19:13:13Z</time>
      </trkpt>
      <trkpt lat="51.213685015967" lon="4.473541064636">
        <ele>33.6</ele>
        <time>2019-08-08T19:13:20Z</time>
      </trkpt>
      <trkpt lat="51.213705886898" lon="4.473862510501">
        <ele>39</ele>
        <time>2019-08-08T19:13:29Z</time>
      </trkpt>
      <trkpt lat="51.213802278748" lon="4.474117236442">
        <ele>39</ele>
        <time>2019-08-08T19:13:36Z</time>
      </trkpt>
      <trkpt lat="51.213930018904" lon="4.474322257716">
        <ele>35.8</ele>
        <time>2019-08-08T19:13:44Z</time>
      </trkpt>
      <trkpt lat="51.214028590048" lon="4.474592993086">
        <ele>34.6</ele>
        <time>2019-08-08T19:13:52Z</time>
      </trkpt>
      <trkpt lat="51.213995733" lon="4.474894238572">
        <ele>39.2</ele>
        <time>2019-08-08T19:13:59Z</time>
      </trkpt>
      <trkpt lat="51.21394292703" lon="4.475192885669">
        <ele>43.2</ele>
        <time>2019-08-08T19:14:06Z</time>
      </trkpt>
      <trkpt lat="51.213891965078" lon="4.475467560532">
        <ele>40.2</ele>
        <time>2019-08-08T19:14:14Z</time>
      </trkpt>
      <trkpt lat="51.213961115753" lon="4.475748857096">
        <ele>37.6</ele>
        <time>2019-08-08T19:14:24Z</time>
      </trkpt>
      <trkpt lat="51.214076283059" lon="4.476014898602">
        <ele>31.4</ele>
        <time>2019-08-08T19:14:32Z</time>
      </trkpt>
      <trkpt lat="51.21414157806" lon="4.476305666713">
        <ele>27.2</ele>
        <time>2019-08-08T19:14:40Z</time>
      </trkpt>
      <trkpt lat="51.214185750673" lon="4.47661185752">
        <ele>29.8</ele>
        <time>2019-08-08T19:14:46Z</time>
      </trkpt>
      <trkpt lat="51.214209136174" lon="4.476901955079">
        <ele>35.4</ele>
        <time>2019-08-08T19:14:52Z</time>
      </trkpt>
      <trkpt lat="51.214211818382" lon="4.477214851406">
        <ele>38.6</ele>
        <time>2019-08-08T19:14:59Z</time>
      </trkpt>
      <trkpt lat="51.214215925513" lon="4.477530094665">
        <ele>43</ele>
        <time>2019-08-08T19:15:06Z</time>
      </trkpt>
      <trkpt lat="51.214328913525" lon="4.477783982416">
        <ele>36.4</ele>
        <time>2019-08-08T19:15:14Z</time>
      </trkpt>
      <trkpt lat="51.214476267327" lon="4.478005935128">
        <ele>30</ele>
        <time>2019-08-08T19:15:22Z</time>
      </trkpt>
      <trkpt lat="51.21462269912" lon="4.478205759624">
        <ele>24.8</ele>
        <time>2019-08-08T19:15:30Z</time>
      </trkpt>
      <trkpt lat="51.214764101773" lon="4.478386892483">
        <ele>19.4</ele>
        <time>2019-08-08T19:15:37Z</time>
      </trkpt>
      <trkpt lat="51.214927967918" lon="4.47857406031">
        <ele>18.2</ele>
        <time>2019-08-08T19:15:44Z</time>
      </trkpt>
      <trkpt lat="51.21509292371" lon="4.478706997244">
        <ele>16.8</ele>
        <time>2019-08-08T19:15:51Z</time>
      </trkpt>
      <trkpt lat="51.215288976351" lon="4.478796348298">
        <ele>19</ele>
        <time>2019-08-08T19:15:59Z</time>
      </trkpt>
      <trkpt lat="51.215469773934" lon="4.478878910013">
        <ele>18</ele>
        <time>2019-08-08T19:16:07Z</time>
      </trkpt>
      <trkpt lat="51.215651409707" lon="4.478967339058">
        <ele>18.8</ele>
        <time>2019-08-08T19:16:14Z</time>
      </trkpt>
      <trkpt lat="51.21582047263" lon="4.47908032707">
        <ele>17.4</ele>
        <time>2019-08-08T19:16:21Z</time>
      </trkpt>
      <trkpt lat="51.215987020983" lon="4.479249725269">
        <ele>13.6</ele>
        <time>2019-08-08T19:16:29Z</time>
      </trkpt>
      <trkpt lat="51.216135212975" lon="4.479430606671">
        <ele>8.6</ele>
        <time>2019-08-08T19:16:37Z</time>
      </trkpt>
      <trkpt lat="51.216151054766" lon="4.479721877696">
        <ele>7.2</ele>
        <time>2019-08-08T19:16:44Z</time>
      </trkpt>
      <trkpt lat="51.216170584593" lon="4.480184474757">
        <ele>9.8</ele>
        <time>2019-08-08T19:16:55Z</time>
      </trkpt>
      <trkpt lat="51.21628734446" lon="4.480383963977">
        <ele>9.2</ele>
        <time>2019-08-08T19:17:03Z</time>
      </trkpt>
      <trkpt lat="51.216472668269" lon="4.480372061679">
        <ele>6.8</ele>
        <time>2019-08-08T19:17:11Z</time>
      </trkpt>
      <trkpt lat="51.216666709254" lon="4.480382371416">
        <ele>5.6</ele>
        <time>2019-08-08T19:17:19Z</time>
      </trkpt>
      <trkpt lat="51.216847590656" lon="4.480398045569">
        <ele>8.6</ele>
        <time>2019-08-08T19:17:26Z</time>
      </trkpt>
      <trkpt lat="51.217036770139" lon="4.480350352558">
        <ele>11.6</ele>
        <time>2019-08-08T19:17:35Z</time>
      </trkpt>
      <trkpt lat="51.217078931096" lon="4.480076851161">
        <ele>16.2</ele>
        <time>2019-08-08T19:17:43Z</time>
      </trkpt>
      <trkpt lat="51.21706937573" lon="4.479752890726">
        <ele>19.6</ele>
        <time>2019-08-08T19:17:51Z</time>
      </trkpt>
      <trkpt lat="51.217083876417" lon="4.479467319393">
        <ele>19.4</ele>
        <time>2019-08-08T19:17:58Z</time>
      </trkpt>
      <trkpt lat="51.217087983548" lon="4.479179149671">
        <ele>19.2</ele>
        <time>2019-08-08T19:18:05Z</time>
      </trkpt>
      <trkpt lat="51.217104328253" lon="4.478892907786">
        <ele>20.2</ele>
        <time>2019-08-08T19:18:12Z</time>
      </trkpt>
      <trkpt lat="51.217114805628" lon="4.478604738064">
        <ele>18.4</ele>
        <time>2019-08-08T19:18:19Z</time>
      </trkpt>
      <trkpt lat="51.217124360994" lon="4.478314808143">
        <ele>16.4</ele>
        <time>2019-08-08T19:18:26Z</time>
      </trkpt>
      <trkpt lat="51.217162079544" lon="4.47802336948">
        <ele>16.2</ele>
        <time>2019-08-08T19:18:33Z</time>
      </trkpt>
      <trkpt lat="51.217059568907" lon="4.477766464245">
        <ele>16.8</ele>
        <time>2019-08-08T19:18:40Z</time>
      </trkpt>
      <trkpt lat="51.216873909822" lon="4.477669401843">
        <ele>16.4</ele>
        <time>2019-08-08T19:18:47Z</time>
      </trkpt>
      <trkpt lat="51.216681377579" lon="4.477652721862">
        <ele>16.4</ele>
        <time>2019-08-08T19:18:54Z</time>
      </trkpt>
      <trkpt lat="51.216499155073" lon="4.477632186207">
        <ele>14.8</ele>
        <time>2019-08-08T19:19:01Z</time>
      </trkpt>
      <trkpt lat="51.216306371373" lon="4.477646854532">
        <ele>6.2</ele>
        <time>2019-08-08T19:19:08Z</time>
      </trkpt>
      <trkpt lat="51.216123478315" lon="4.477721537261">
        <ele>1.6</ele>
        <time>2019-08-08T19:19:15Z</time>
      </trkpt>
      <trkpt lat="51.215990373743" lon="4.477916751712">
        <ele>0</ele>
        <time>2019-08-08T19:19:21Z</time>
      </trkpt>
      <trkpt lat="51.215872691867" lon="4.478140129347">
        <ele>0</ele>
        <time>2019-08-08T19:19:27Z</time>
      </trkpt>
      <trkpt lat="51.215755345267" lon="4.478394017098">
        <ele>0</ele>
        <time>2019-08-08T19:19:34Z</time>
      </trkpt>
      <trkpt lat="51.215647554033" lon="4.478670368341">
        <ele>0</ele>
        <time>2019-08-08T19:19:42Z</time>
      </trkpt>
      <trkpt lat="51.215623078885" lon="4.478945881394">
        <ele>0.4</ele>
        <time>2019-08-08T19:19:49Z</time>
      </trkpt>
      <trkpt lat="51.215791890351" lon="4.479078315414">
        <ele>0</ele>
        <time>2019-08-08T19:19:57Z</time>
      </trkpt>
      <trkpt lat="51.215966904423" lon="4.479226255949">
        <ele>0</ele>
        <time>2019-08-08T19:20:05Z</time>
      </trkpt>
      <trkpt lat="51.216114593501" lon="4.479445610272">
        <ele>0</ele>
        <time>2019-08-08T19:20:13Z</time>
      </trkpt>
      <trkpt lat="51.216138314278" lon="4.479773007286">
        <ele>0</ele>
        <time>2019-08-08T19:20:20Z</time>
      </trkpt>
      <trkpt lat="51.216173518258" lon="4.480101493947">
        <ele>0</ele>
        <time>2019-08-08T19:20:27Z</time>
      </trkpt>
      <trkpt lat="51.216244345313" lon="4.48036191958">
        <ele>0</ele>
        <time>2019-08-08T19:20:35Z</time>
      </trkpt>
      <trkpt lat="51.216440984687" lon="4.480329816903">
        <ele>0</ele>
        <time>2019-08-08T19:20:43Z</time>
      </trkpt>
      <trkpt lat="51.216622536641" lon="4.480322273193">
        <ele>0</ele>
        <time>2019-08-08T19:20:50Z</time>
      </trkpt>
      <trkpt lat="51.216819511291" lon="4.480326883238">
        <ele>0</ele>
        <time>2019-08-08T19:20:58Z</time>
      </trkpt>
      <trkpt lat="51.217006260023" lon="4.480237113089">
        <ele>0</ele>
        <time>2019-08-08T19:21:06Z</time>
      </trkpt>
      <trkpt lat="51.217076500345" lon="4.479970568669">
        <ele>0</ele>
        <time>2019-08-08T19:21:13Z</time>
      </trkpt>
      <trkpt lat="51.217108100108" lon="4.479674017047">
        <ele>0</ele>
        <time>2019-08-08T19:21:20Z</time>
      </trkpt>
      <trkpt lat="51.21714565102" lon="4.479359695797">
        <ele>0</ele>
        <time>2019-08-08T19:21:27Z</time>
      </trkpt>
      <trkpt lat="51.217138777862" lon="4.47903506481">
        <ele>0</ele>
        <time>2019-08-08T19:21:34Z</time>
      </trkpt>
      <trkpt lat="51.217138610224" lon="4.478717306981">
        <ele>0.6</ele>
        <time>2019-08-08T19:21:41Z</time>
      </trkpt>
      <trkpt lat="51.217149339056" lon="4.478398543324">
        <ele>3.2</ele>
        <time>2019-08-08T19:21:48Z</time>
      </trkpt>
      <trkpt lat="51.217169539435" lon="4.478098974218">
        <ele>2.2</ele>
        <time>2019-08-08T19:21:55Z</time>
      </trkpt>
      <trkpt lat="51.217165683761" lon="4.477899652636">
        <ele>1.2</ele>
        <time>2019-08-08T19:22:00Z</time>
      </trkpt>
      <trkpt lat="51.21702243709" lon="4.47768725529">
        <ele>1.6</ele>
        <time>2019-08-08T19:22:07Z</time>
      </trkpt>
      <trkpt lat="51.216839376394" lon="4.477624810135">
        <ele>0.8</ele>
        <time>2019-08-08T19:22:14Z</time>
      </trkpt>
      <trkpt lat="51.216646173599" lon="4.477641657754">
        <ele>1</ele>
        <time>2019-08-08T19:22:21Z</time>
      </trkpt>
      <trkpt lat="51.216466549482" lon="4.477637382985">
        <ele>1</ele>
        <time>2019-08-08T19:22:28Z</time>
      </trkpt>
      <trkpt lat="51.216231437187" lon="4.477668144558">
        <ele>0.2</ele>
        <time>2019-08-08T19:22:37Z</time>
      </trkpt>
      <trkpt lat="51.216068157775" lon="4.477837878033">
        <ele>0</ele>
        <time>2019-08-08T19:22:44Z</time>
      </trkpt>
      <trkpt lat="51.215916780661" lon="4.478048096085">
        <ele>0.2</ele>
        <time>2019-08-08T19:22:52Z</time>
      </trkpt>
      <trkpt lat="51.215809324703" lon="4.478248591133">
        <ele>0</ele>
        <time>2019-08-08T19:22:59Z</time>
      </trkpt>
      <trkpt lat="51.215708574265" lon="4.47849024131">
        <ele>0</ele>
        <time>2019-08-08T19:23:06Z</time>
      </trkpt>
      <trkpt lat="51.215606315085" lon="4.478748236192">
        <ele>0</ele>
        <time>2019-08-08T19:23:13Z</time>
      </trkpt>
      <trkpt lat="51.215682758013" lon="4.478990473102">
        <ele>0</ele>
        <time>2019-08-08T19:23:21Z</time>
      </trkpt>
      <trkpt lat="51.215872859505" lon="4.479108574073">
        <ele>0</ele>
        <time>2019-08-08T19:23:29Z</time>
      </trkpt>
      <trkpt lat="51.2160492985" lon="4.479262717214">
        <ele>0</ele>
        <time>2019-08-08T19:23:37Z</time>
      </trkpt>
      <trkpt lat="51.216151138585" lon="4.479507636332">
        <ele>0</ele>
        <time>2019-08-08T19:23:44Z</time>
      </trkpt>
      <trkpt lat="51.216154658983" lon="4.479799745547">
        <ele>0</ele>
        <time>2019-08-08T19:23:50Z</time>
      </trkpt>
      <trkpt lat="51.216174356448" lon="4.480124627991">
        <ele>0</ele>
        <time>2019-08-08T19:23:57Z</time>
      </trkpt>
      <trkpt lat="51.216183911814" lon="4.480366361987">
        <ele>0</ele>
        <time>2019-08-08T19:24:03Z</time>
      </trkpt>
      <trkpt lat="51.216137895183" lon="4.480383209606">
        <ele>0</ele>
        <time>2019-08-08T19:24:05Z</time>
      </trkpt>
      <trkpt lat="51.215953409564" lon="4.480365607616">
        <ele>0</ele>
        <time>2019-08-08T19:24:12Z</time>
      </trkpt>
      <trkpt lat="51.21576599028" lon="4.480361165209">
        <ele>0</ele>
        <time>2019-08-08T19:24:19Z</time>
      </trkpt>
      <trkpt lat="51.215581253204" lon="4.480344569047">
        <ele>0.8</ele>
        <time>2019-08-08T19:24:25Z</time>
      </trkpt>
      <trkpt lat="51.215392744273" lon="4.480312131094">
        <ele>2.6</ele>
        <time>2019-08-08T19:24:32Z</time>
      </trkpt>
      <trkpt lat="51.215186633352" lon="4.480300480253">
        <ele>4.2</ele>
        <time>2019-08-08T19:24:39Z</time>
      </trkpt>
      <trkpt lat="51.214993011462" lon="4.480338701717">
        <ele>6</ele>
        <time>2019-08-08T19:24:46Z</time>
      </trkpt>
      <trkpt lat="51.214794863346" lon="4.480389328393">
        <ele>3.6</ele>
        <time>2019-08-08T19:24:55Z</time>
      </trkpt>
      <trkpt lat="51.214601325275" lon="4.480337947346">
        <ele>0.6</ele>
        <time>2019-08-08T19:25:03Z</time>
      </trkpt>
      <trkpt lat="51.21442404809" lon="4.480220684565">
        <ele>0</ele>
        <time>2019-08-08T19:25:11Z</time>
      </trkpt>
      <trkpt lat="51.214249117837" lon="4.4800584948">
        <ele>0.4</ele>
        <time>2019-08-08T19:25:19Z</time>
      </trkpt>
      <trkpt lat="51.214090616108" lon="4.479921283097">
        <ele>2.8</ele>
        <time>2019-08-08T19:25:25Z</time>
      </trkpt>
      <trkpt lat="51.213912919828" lon="4.479768313422">
        <ele>3.6</ele>
        <time>2019-08-08T19:25:32Z</time>
      </trkpt>
      <trkpt lat="51.213723488888" lon="4.479612912996">
        <ele>5.8</ele>
        <time>2019-08-08T19:25:38Z</time>
      </trkpt>
      <trkpt lat="51.21355400687" lon="4.47945583619">
        <ele>6</ele>
        <time>2019-08-08T19:25:44Z</time>
      </trkpt>
      <trkpt lat="51.213397516797" lon="4.479292137683">
        <ele>6.8</ele>
        <time>2019-08-08T19:25:50Z</time>
      </trkpt>
      <trkpt lat="51.213277655627" lon="4.479240840455">
        <ele>7.2</ele>
        <time>2019-08-08T19:25:55Z</time>
      </trkpt>
      <trkpt lat="51.21325225847" lon="4.4792957419">
        <ele>6.2</ele>
        <time>2019-08-08T19:25:57Z</time>
      </trkpt>
      <trkpt lat="51.213174055343" lon="4.479597574119">
        <ele>3.2</ele>
        <time>2019-08-08T19:26:05Z</time>
      </trkpt>
      <trkpt lat="51.213068359584" lon="4.479866130195">
        <ele>0.6</ele>
        <time>2019-08-08T19:26:13Z</time>
      </trkpt>
      <trkpt lat="51.212992922484" lon="4.480089926925">
        <ele>1</ele>
        <time>2019-08-08T19:26:21Z</time>
      </trkpt>
      <trkpt lat="51.213151843308" lon="4.480253709251">
        <ele>0.4</ele>
        <time>2019-08-08T19:26:29Z</time>
      </trkpt>
      <trkpt lat="51.213334568728" lon="4.480385053624">
        <ele>0</ele>
        <time>2019-08-08T19:26:37Z</time>
      </trkpt>
      <trkpt lat="51.213494746837" lon="4.48052452844">
        <ele>0</ele>
        <time>2019-08-08T19:26:44Z</time>
      </trkpt>
      <trkpt lat="51.213657858611" lon="4.480676324649">
        <ele>0</ele>
        <time>2019-08-08T19:26:51Z</time>
      </trkpt>
      <trkpt lat="51.213824574602" lon="4.480821163881">
        <ele>0</ele>
        <time>2019-08-08T19:26:58Z</time>
      </trkpt>
      <trkpt lat="51.213981819046" lon="4.480972792452">
        <ele>0</ele>
        <time>2019-08-08T19:27:05Z</time>
      </trkpt>
      <trkpt lat="51.214156078747" lon="4.481096928391">
        <ele>0</ele>
        <time>2019-08-08T19:27:12Z</time>
      </trkpt>
      <trkpt lat="51.21433017081" lon="4.481252664093">
        <ele>0</ele>
        <time>2019-08-08T19:27:19Z</time>
      </trkpt>
      <trkpt lat="51.214506106891" lon="4.481384176104">
        <ele>0</ele>
        <time>2019-08-08T19:27:26Z</time>
      </trkpt>
      <trkpt lat="51.214670140674" lon="4.481502947627">
        <ele>0</ele>
        <time>2019-08-08T19:27:33Z</time>
      </trkpt>
      <trkpt lat="51.214837527217" lon="4.481612247603">
        <ele>0</ele>
        <time>2019-08-08T19:27:40Z</time>
      </trkpt>
      <trkpt lat="51.215011284004" lon="4.481710315833">
        <ele>0</ele>
        <time>2019-08-08T19:27:47Z</time>
      </trkpt>
      <trkpt lat="51.215192500682" lon="4.481795308299">
        <ele>0</ele>
        <time>2019-08-08T19:27:54Z</time>
      </trkpt>
      <trkpt lat="51.215383440364" lon="4.481850377382">
        <ele>0</ele>
        <time>2019-08-08T19:28:01Z</time>
      </trkpt>
      <trkpt lat="51.215668844059" lon="4.481952385105">
        <ele>0</ele>
        <time>2019-08-08T19:28:12Z</time>
      </trkpt>
      <trkpt lat="51.21586573489" lon="4.482020362314">
        <ele>0</ele>
        <time>2019-08-08T19:28:20Z</time>
      </trkpt>
      <trkpt lat="51.216046532473" lon="4.481961269919">
        <ele>0</ele>
        <time>2019-08-08T19:28:27Z</time>
      </trkpt>
      <trkpt lat="51.216227497694" lon="4.481951714553">
        <ele>0</ele>
        <time>2019-08-08T19:28:34Z</time>
      </trkpt>
      <trkpt lat="51.216297318921" lon="4.481934531658">
        <ele>0</ele>
        <time>2019-08-08T19:28:37Z</time>
      </trkpt>
    </trkseg>
  </trk>
</gpx>